createdAt,value
2023-05-15T00:00:18.834Z,4.80
2023-05-15T00:02:51.815Z,5.05
2023-05-15T00:07:57.697Z,6.65
2023-05-15T00:13:04.566Z,4.03
2023-05-15T00:15:37.346Z,6.30
2023-05-15T00:18:10.132Z,4.78
2023-05-15T00:20:42.945Z,7.00
2023-05-15T00:23:16.037Z,5.95
2023-05-15T00:25:48.896Z,5.85
2023-05-15T00:30:55.703Z,5.60
2023-05-15T00:33:28.907Z,5.85
2023-05-15T00:38:34.675Z,4.85
2023-05-15T00:41:11.707Z,5.53
2023-05-15T00:43:46.922Z,4.80
2023-05-15T00:46:22.371Z,5.00
2023-05-15T00:48:58.910Z,5.43
2023-05-15T00:51:31.754Z,4.20
2023-05-15T00:54:05.075Z,6.50
2023-05-15T00:56:38.378Z,6.18
2023-05-15T00:59:14.160Z,4.35
2023-05-15T01:01:46.938Z,6.72
2023-05-15T01:04:19.957Z,5.20
2023-05-15T01:09:32.004Z,4.72
2023-05-15T01:12:08.433Z,5.55
2023-05-15T01:14:42.945Z,5.20
2023-05-15T01:17:15.730Z,5.20
2023-05-15T01:19:52.524Z,7.45
2023-05-15T01:22:45.758Z,4.32
2023-05-15T01:26:09.370Z,5.18
2023-05-15T01:28:47.703Z,5.05
2023-05-15T01:31:23.633Z,5.85
2023-05-15T01:34:03.987Z,5.72
2023-05-15T01:36:44.074Z,4.45
2023-05-15T01:39:24.145Z,5.45
2023-05-15T01:42:04.850Z,4.43
2023-05-15T01:44:44.461Z,7.22
2023-05-15T01:47:23.300Z,5.35
2023-05-15T01:49:58.483Z,5.93
2023-05-15T01:52:35.073Z,5.43
2023-05-15T01:55:10.969Z,6.63
2023-05-15T01:57:44.740Z,5.53
2023-05-15T02:00:21.532Z,4.70
2023-05-15T02:02:55.807Z,5.57
2023-05-15T02:05:30.431Z,5.38
2023-05-15T02:08:04.302Z,7.40
2023-05-15T02:10:37.545Z,6.40
2023-05-15T02:13:11.477Z,5.28
2023-05-15T02:15:45.704Z,6.38
2023-05-15T02:18:20.190Z,5.93
2023-05-15T02:20:53.141Z,4.57
2023-05-15T02:26:12.119Z,7.00
2023-05-15T02:28:51.518Z,7.85
2023-05-15T02:31:32.803Z,5.53
2023-05-15T02:34:14.006Z,6.47
2023-05-15T02:36:50.823Z,5.07
2023-05-15T02:39:25.140Z,6.07
2023-05-15T02:41:59.032Z,6.22
2023-05-15T02:44:32.970Z,5.65
2023-05-15T02:47:08.751Z,7.18
2023-05-15T02:49:44.114Z,5.78
2023-05-15T02:52:19.215Z,8.68
2023-05-15T02:54:52.328Z,8.45
2023-05-15T02:57:25.447Z,6.63
2023-05-15T02:59:59.033Z,5.95
2023-05-15T03:02:33.638Z,6.90
2023-05-15T03:05:07.668Z,7.15
2023-05-15T03:07:41.512Z,8.20
2023-05-15T03:10:14.388Z,6.82
2023-05-15T03:12:47.114Z,8.38
2023-05-15T03:15:20.363Z,8.40
2023-05-15T03:17:54.632Z,6.25
2023-05-15T03:20:27.711Z,7.10
2023-05-15T03:23:00.860Z,6.60
2023-05-15T03:25:33.979Z,7.65
2023-05-15T03:30:39.477Z,8.87
2023-05-15T03:33:13.634Z,8.77
2023-05-15T03:35:46.579Z,7.22
2023-05-15T03:38:21.517Z,9.80
2023-05-15T03:40:54.451Z,10.02
2023-05-15T03:46:00.670Z,9.13
2023-05-15T03:48:34.975Z,9.15
2023-05-15T03:51:12.128Z,9.73
2023-05-15T03:53:44.995Z,7.65
2023-05-15T03:58:50.872Z,7.90
2023-05-15T04:01:24.036Z,12.05
2023-05-15T04:03:58.388Z,8.35
2023-05-15T04:06:31.570Z,10.68
2023-05-15T04:09:04.866Z,10.95
2023-05-15T04:11:37.707Z,9.00
2023-05-15T04:14:10.963Z,10.50
2023-05-15T04:16:44.459Z,12.05
2023-05-15T04:19:20.845Z,8.93
2023-05-15T04:21:53.942Z,11.13
2023-05-15T04:26:59.568Z,8.90
2023-05-15T04:29:32.499Z,10.60
2023-05-15T04:32:05.851Z,8.95
2023-05-15T04:34:40.915Z,8.73
2023-05-15T04:37:13.800Z,10.23
2023-05-15T04:42:19.332Z,9.77
2023-05-15T04:44:52.131Z,10.45
2023-05-15T04:47:25.027Z,8.93
2023-05-15T04:49:59.402Z,9.70
2023-05-15T04:52:32.459Z,10.25
2023-05-15T04:55:06.279Z,10.25
2023-05-15T04:57:39.171Z,11.80
2023-05-15T05:00:14.399Z,9.27
2023-05-15T05:02:47.459Z,8.82
2023-05-15T05:05:22.147Z,9.40
2023-05-15T05:07:55.034Z,11.93
2023-05-15T05:10:30.440Z,10.73
2023-05-15T05:13:03.279Z,11.63
2023-05-15T05:15:37.343Z,13.70
2023-05-15T05:18:10.429Z,10.52
2023-05-15T05:23:18.271Z,12.60
2023-05-15T05:25:51.079Z,12.18
2023-05-15T05:28:24.628Z,11.63
2023-05-15T05:30:57.493Z,12.50
2023-05-15T05:33:30.416Z,10.35
2023-05-15T05:36:05.232Z,11.57
2023-05-15T05:38:38.254Z,8.75
2023-05-15T05:43:43.720Z,10.57
2023-05-15T05:46:16.618Z,9.63
2023-05-15T05:51:23.561Z,10.27
2023-05-15T05:53:56.683Z,11.02
2023-05-15T05:56:29.816Z,11.65
2023-05-15T05:59:02.866Z,10.07
2023-05-15T06:04:08.704Z,9.88
2023-05-15T06:09:15.659Z,8.65
2023-05-15T06:14:23.703Z,10.05
2023-05-15T06:16:56.703Z,9.35
2023-05-15T06:22:04.742Z,8.48
2023-05-15T06:24:37.675Z,8.07
2023-05-15T06:27:10.402Z,8.30
2023-05-15T06:29:43.236Z,9.25
2023-05-15T06:32:16.035Z,9.30
2023-05-15T06:34:49.039Z,8.77
2023-05-15T06:37:26.052Z,9.00
2023-05-15T06:39:59.088Z,10.50
2023-05-15T06:42:32.350Z,9.77
2023-05-15T06:45:06.484Z,9.15
2023-05-15T06:47:39.471Z,9.52
2023-05-15T06:50:12.644Z,10.13
2023-05-15T06:52:47.115Z,9.15
2023-05-15T06:55:20.647Z,9.35
2023-05-15T06:57:54.191Z,9.85
2023-05-15T07:00:27.571Z,9.00
2023-05-15T07:03:00.373Z,9.98
2023-05-15T07:08:09.685Z,11.30
2023-05-15T07:10:42.533Z,11.63
2023-05-15T07:13:17.864Z,10.27
2023-05-15T07:15:50.913Z,10.50
2023-05-15T07:18:24.015Z,11.57
2023-05-15T07:20:56.984Z,9.27
2023-05-15T07:23:32.263Z,12.48
2023-05-15T07:26:05.497Z,13.88
2023-05-15T07:28:38.346Z,13.85
2023-05-15T07:31:11.439Z,11.80
2023-05-15T07:33:44.328Z,13.10
2023-05-15T07:38:51.856Z,13.85
2023-05-15T07:41:24.783Z,14.15
2023-05-15T07:46:30.939Z,16.05
2023-05-15T07:49:04.384Z,17.55
2023-05-15T07:51:37.361Z,17.08
2023-05-15T07:56:44.885Z,22.17
2023-05-15T07:59:20.117Z,24.20
2023-05-15T08:01:53.200Z,23.55
2023-05-15T08:06:58.856Z,22.98
2023-05-15T08:12:20.802Z,23.20
2023-05-15T08:14:55.685Z,26.60
2023-05-15T08:17:29.112Z,27.40
2023-05-15T08:20:02.020Z,25.30
2023-05-15T08:22:35.002Z,30.25
2023-05-15T08:27:44.057Z,25.45
2023-05-15T08:30:18.209Z,27.08
2023-05-15T08:32:51.255Z,26.20
2023-05-15T08:35:25.392Z,22.83
2023-05-15T08:38:00.666Z,27.70
2023-05-15T08:40:39.596Z,28.05
2023-05-15T08:43:16.465Z,24.75
2023-05-15T08:45:50.687Z,26.23
2023-05-15T08:48:26.205Z,27.00
2023-05-15T08:51:01.596Z,26.85
2023-05-15T08:53:38.261Z,27.83
2023-05-15T08:56:15.634Z,23.80
2023-05-15T08:58:49.154Z,24.55
2023-05-15T09:01:22.823Z,24.23
2023-05-15T09:03:55.777Z,23.95
2023-05-15T09:11:37.895Z,23.02
2023-05-15T09:14:11.042Z,23.92
2023-05-15T09:16:44.561Z,24.75
2023-05-15T09:19:20.260Z,25.88
2023-05-15T09:21:53.238Z,21.20
2023-05-15T09:24:29.183Z,21.98
2023-05-15T09:27:06.785Z,22.77
2023-05-15T09:29:40.680Z,23.80
2023-05-15T09:32:15.606Z,22.58
2023-05-15T09:34:48.702Z,22.13
2023-05-15T09:40:22.208Z,20.77
2023-05-15T09:42:56.500Z,21.50
2023-05-15T09:45:31.645Z,24.80
2023-05-15T09:48:07.032Z,17.08
2023-05-15T09:50:43.070Z,19.15
2023-05-15T09:53:21.423Z,19.48
2023-05-15T09:55:55.157Z,14.93
2023-05-15T09:58:29.548Z,14.00
2023-05-15T10:01:03.143Z,13.32
2023-05-15T10:03:39.991Z,11.55
2023-05-15T10:06:19.755Z,12.63
2023-05-15T10:08:54.255Z,11.48
2023-05-15T10:11:27.612Z,7.95
2023-05-15T10:14:05.086Z,10.73
2023-05-15T10:16:39.683Z,7.28
2023-05-15T10:19:14.110Z,8.15
2023-05-15T10:21:48.691Z,9.48
2023-05-15T10:24:22.997Z,6.78
2023-05-15T10:26:57.462Z,7.38
2023-05-15T10:29:33.315Z,10.02
2023-05-15T10:32:06.423Z,6.95
2023-05-15T10:34:40.252Z,6.43
2023-05-15T10:37:15.903Z,8.57
2023-05-15T10:39:50.495Z,7.53
2023-05-15T10:42:25.184Z,9.07
2023-05-15T10:45:02.645Z,10.05
2023-05-15T10:47:36.440Z,10.10
2023-05-15T10:50:11.060Z,12.90
2023-05-15T10:52:44.116Z,6.15
2023-05-15T10:55:20.548Z,10.18
2023-05-15T10:57:54.945Z,9.13
2023-05-15T11:00:31.625Z,10.00
2023-05-15T11:03:06.347Z,9.27
2023-05-15T11:06:10.746Z,10.30
2023-05-15T11:08:46.528Z,7.03
2023-05-15T11:11:58.150Z,8.77
2023-05-15T11:14:32.772Z,10.60
2023-05-15T11:17:09.302Z,7.03
2023-05-15T11:20:00.947Z,12.32
2023-05-15T11:22:36.127Z,9.40
2023-05-15T11:25:12.621Z,10.43
2023-05-15T11:27:46.654Z,10.23
2023-05-15T11:30:22.419Z,10.48
2023-05-15T11:33:01.619Z,16.30
2023-05-15T11:35:36.087Z,10.40
2023-05-15T11:38:13.932Z,12.15
2023-05-15T11:40:48.317Z,11.73
2023-05-15T11:43:24.762Z,15.80
2023-05-15T11:45:59.036Z,11.13
2023-05-15T11:48:34.806Z,12.75
2023-05-15T11:51:17.622Z,10.25
2023-05-15T11:53:52.140Z,14.25
2023-05-15T11:56:28.262Z,10.48
2023-05-15T11:59:02.407Z,11.00
2023-05-15T12:01:41.322Z,11.70
2023-05-15T12:04:16.937Z,10.20
2023-05-15T12:06:50.265Z,12.65
2023-05-15T12:09:27.258Z,8.85
2023-05-15T12:12:00.476Z,9.32
2023-05-15T12:17:07.161Z,9.55
2023-05-15T12:19:42.159Z,8.38
2023-05-15T12:22:15.500Z,12.05
2023-05-15T12:24:48.741Z,11.70
2023-05-15T12:27:21.877Z,9.30
2023-05-15T12:29:55.485Z,9.43
2023-05-15T12:32:35.156Z,10.10
2023-05-15T12:35:11.755Z,10.13
2023-05-15T12:37:45.927Z,12.48
2023-05-15T12:40:21.982Z,9.75
2023-05-15T12:42:55.525Z,5.53
2023-05-15T12:45:28.886Z,9.85
2023-05-15T12:48:03.574Z,10.05
2023-05-15T12:50:37.806Z,7.90
2023-05-15T12:53:13.867Z,9.75
2023-05-15T12:55:47.739Z,7.13
2023-05-15T12:58:21.411Z,8.48
2023-05-15T13:00:54.882Z,8.57
2023-05-15T13:03:28.716Z,7.68
2023-05-15T13:06:03.673Z,8.02
2023-05-15T13:08:41.607Z,8.63
2023-05-15T13:11:15.434Z,9.35
2023-05-15T13:13:49.491Z,11.90
2023-05-15T13:16:29.477Z,8.07
2023-05-15T13:19:02.771Z,9.52
2023-05-15T13:21:37.398Z,7.50
2023-05-15T13:24:10.880Z,10.00
2023-05-15T13:26:43.852Z,7.80
2023-05-15T13:29:16.849Z,5.65
2023-05-15T13:31:49.898Z,5.65
2023-05-15T13:34:22.854Z,8.73
2023-05-15T13:36:57.111Z,11.07
2023-05-15T13:39:30.096Z,7.13
2023-05-15T13:42:02.942Z,7.57
2023-05-15T13:44:37.635Z,7.47
2023-05-15T13:47:13.727Z,9.77
2023-05-15T13:49:46.637Z,6.65
2023-05-15T13:54:53.777Z,9.75
2023-05-15T14:00:00.298Z,9.68
2023-05-15T14:02:33.290Z,9.30
2023-05-15T14:10:14.166Z,6.97
2023-05-15T14:12:47.150Z,7.53
2023-05-15T14:17:54.740Z,8.90
2023-05-15T14:20:27.934Z,6.47
2023-05-15T14:23:02.150Z,9.68
2023-05-15T14:25:34.894Z,9.18
2023-05-15T14:28:07.727Z,8.88
2023-05-15T14:30:40.564Z,8.68
2023-05-15T14:33:13.568Z,9.02
2023-05-15T14:38:21.830Z,16.02
2023-05-15T14:40:56.019Z,11.15
2023-05-15T14:43:29.478Z,10.18
2023-05-15T14:46:02.472Z,14.65
2023-05-15T14:48:35.322Z,13.60
2023-05-15T14:53:43.069Z,11.38
2023-05-15T14:56:16.282Z,14.25
2023-05-15T14:58:49.071Z,12.93
2023-05-15T15:01:22.026Z,12.18
2023-05-15T15:06:27.567Z,13.43
2023-05-15T15:09:01.783Z,8.68
2023-05-15T15:11:34.806Z,14.85
2023-05-15T15:16:41.054Z,7.40
2023-05-15T15:19:14.168Z,14.85
2023-05-15T15:21:47.737Z,18.45
2023-05-15T15:24:22.361Z,16.67
2023-05-15T15:26:55.658Z,23.48
2023-05-15T15:29:28.519Z,16.30
2023-05-15T15:32:01.604Z,15.73
2023-05-15T15:37:07.207Z,23.07
2023-05-15T15:39:41.334Z,21.60
2023-05-15T15:42:14.418Z,19.02
2023-05-15T15:44:47.225Z,17.58
2023-05-15T15:47:20.334Z,13.77
2023-05-15T15:50:00.908Z,16.65
2023-05-15T15:52:33.896Z,19.27
2023-05-15T15:55:10.096Z,26.80
2023-05-15T15:57:43.939Z,17.50
2023-05-15T16:00:20.753Z,16.50
2023-05-15T16:02:53.969Z,16.90
2023-05-15T16:05:26.948Z,11.57
2023-05-15T16:10:33.826Z,16.03
2023-05-15T16:13:09.161Z,16.17
2023-05-15T16:15:41.976Z,16.20
2023-05-15T16:18:15.017Z,15.95
2023-05-15T16:20:48.735Z,17.15
2023-05-15T16:23:23.484Z,15.35
2023-05-15T16:25:57.748Z,17.27
2023-05-15T16:28:30.670Z,19.17
2023-05-15T16:33:37.527Z,14.10
2023-05-15T16:36:10.484Z,14.20
2023-05-15T16:41:18.656Z,18.13
2023-05-15T16:43:51.502Z,10.80
2023-05-15T16:48:57.485Z,15.07
2023-05-15T16:51:31.587Z,18.33
2023-05-15T16:54:04.661Z,15.23
2023-05-15T16:56:38.875Z,15.23
2023-05-15T16:59:11.887Z,17.63
2023-05-15T17:04:17.802Z,11.75
2023-05-15T17:06:50.869Z,15.25
2023-05-15T17:09:28.404Z,20.27
2023-05-15T17:12:04.883Z,16.52
2023-05-15T17:14:37.777Z,12.27
2023-05-15T17:17:10.630Z,13.57
2023-05-15T17:19:45.425Z,11.55
2023-05-15T17:22:19.185Z,13.25
2023-05-15T17:24:53.017Z,12.52
2023-05-15T17:27:27.689Z,12.82
2023-05-15T17:30:00.960Z,11.95
2023-05-15T17:32:34.734Z,9.77
2023-05-15T17:35:09.128Z,11.85
2023-05-15T17:37:42.580Z,14.23
2023-05-15T17:40:15.536Z,11.32
2023-05-15T17:45:22.686Z,22.33
2023-05-15T17:50:38.994Z,14.52
2023-05-15T17:53:12.090Z,11.93
2023-05-15T17:58:21.185Z,14.18
2023-05-15T18:00:54.461Z,15.18
2023-05-15T18:03:27.606Z,13.35
2023-05-15T18:08:33.952Z,15.88
2023-05-15T18:11:14.257Z,16.02
2023-05-15T18:13:56.611Z,19.80
2023-05-15T18:16:31.264Z,18.30
2023-05-15T18:19:04.265Z,16.48
2023-05-15T18:24:13.676Z,13.40
2023-05-15T18:26:46.699Z,14.32
2023-05-15T18:29:21.146Z,13.60
2023-05-15T18:31:54.215Z,19.08
2023-05-15T18:34:27.109Z,9.93
2023-05-15T18:39:38.919Z,14.63
2023-05-15T18:42:11.941Z,15.55
2023-05-15T18:44:47.122Z,13.35
2023-05-15T18:47:20.280Z,13.68
2023-05-15T18:49:53.134Z,15.85
2023-05-15T18:52:27.018Z,17.13
2023-05-15T18:55:01.319Z,16.35
2023-05-15T18:57:34.225Z,17.63
2023-05-15T19:00:09.703Z,17.08
2023-05-15T19:02:42.723Z,20.15
2023-05-15T19:05:16.108Z,17.65
2023-05-15T19:07:50.403Z,13.93
2023-05-15T19:10:23.195Z,16.88
2023-05-15T19:12:56.136Z,15.38
2023-05-15T19:18:03.658Z,17.52
2023-05-15T19:20:36.579Z,14.45
2023-05-15T19:23:09.835Z,19.45
2023-05-15T19:25:42.667Z,15.57
2023-05-15T19:28:15.540Z,18.85
2023-05-15T19:33:23.643Z,12.10
2023-05-15T19:35:56.853Z,15.27
2023-05-15T19:38:29.860Z,14.85
2023-05-15T19:41:03.681Z,14.80
2023-05-15T19:46:13.705Z,16.92
2023-05-15T19:48:47.249Z,11.70
2023-05-15T19:51:20.405Z,15.63
2023-05-15T19:53:53.306Z,13.32
2023-05-15T19:56:26.910Z,15.30
2023-05-15T19:59:00.494Z,12.85
2023-05-15T20:01:34.853Z,13.35
2023-05-15T20:04:07.965Z,16.67
2023-05-15T20:06:41.011Z,14.30
2023-05-15T20:09:15.730Z,10.57
2023-05-15T20:11:48.863Z,10.40
2023-05-15T20:14:21.976Z,17.63
2023-05-15T20:16:56.677Z,18.05
2023-05-15T20:19:31.553Z,14.82
2023-05-15T20:22:04.506Z,12.30
2023-05-15T20:27:11.182Z,17.15
2023-05-15T20:29:45.481Z,13.23
2023-05-15T20:32:19.886Z,21.40
2023-05-15T20:34:53.948Z,14.18
2023-05-15T20:37:27.327Z,12.23
2023-05-15T20:40:00.870Z,14.73
2023-05-15T20:42:35.802Z,13.60
2023-05-15T20:45:09.272Z,15.00
2023-05-15T20:47:43.615Z,12.80
2023-05-15T20:50:17.016Z,19.65
2023-05-15T20:52:49.969Z,12.65
2023-05-15T20:55:22.798Z,14.45
2023-05-15T20:57:55.600Z,16.45
2023-05-15T21:00:28.659Z,13.20
2023-05-15T21:03:03.180Z,17.75
2023-05-15T21:05:36.135Z,11.23
2023-05-15T21:10:41.967Z,16.33
2023-05-15T21:15:48.112Z,15.95
2023-05-15T21:18:24.293Z,13.27
2023-05-15T21:20:59.574Z,18.30
2023-05-15T21:23:32.409Z,10.63
2023-05-15T21:28:37.995Z,14.63
2023-05-15T21:31:11.965Z,13.43
2023-05-15T21:33:48.269Z,14.98
2023-05-15T21:36:22.950Z,18.30
2023-05-15T21:38:55.662Z,13.02
2023-05-15T21:41:28.568Z,13.05
2023-05-15T21:46:34.274Z,13.70
2023-05-15T21:49:08.593Z,12.10
2023-05-15T21:51:41.384Z,14.15
2023-05-15T21:54:14.323Z,11.45
2023-05-15T21:59:19.795Z,9.05
2023-05-15T22:01:52.751Z,7.82
2023-05-15T22:07:01.917Z,13.23
2023-05-15T22:09:34.955Z,11.02
2023-05-15T22:12:08.461Z,10.98
2023-05-15T22:14:54.472Z,17.15
2023-05-15T22:17:31.359Z,15.77
2023-05-15T22:20:11.267Z,8.48
2023-05-15T22:22:44.335Z,17.60
2023-05-15T22:25:17.091Z,16.08
2023-05-15T22:27:50.226Z,12.35
2023-05-15T22:30:23.072Z,9.23
2023-05-15T22:35:29.994Z,13.80
2023-05-15T22:38:02.750Z,18.27
2023-05-15T22:40:35.525Z,11.77
2023-05-15T22:43:08.392Z,9.55
2023-05-15T22:45:41.397Z,9.65
2023-05-15T22:48:15.798Z,10.60
2023-05-15T22:50:52.131Z,10.77
2023-05-15T22:53:24.905Z,12.43
2023-05-15T22:55:57.703Z,12.63
2023-05-15T22:58:30.515Z,7.32
2023-05-15T23:03:37.136Z,14.77
2023-05-15T23:08:44.944Z,10.10
2023-05-15T23:11:20.444Z,9.48
2023-05-15T23:13:53.435Z,8.10
2023-05-15T23:16:26.844Z,12.05
2023-05-15T23:18:59.787Z,13.30
2023-05-15T23:21:34.548Z,10.35
2023-05-15T23:24:07.710Z,9.95
2023-05-15T23:26:41.576Z,13.38
2023-05-15T23:29:14.756Z,13.32
2023-05-15T23:31:47.750Z,15.77
2023-05-15T23:36:54.703Z,11.55
2023-05-15T23:39:27.562Z,8.93
2023-05-15T23:42:00.981Z,13.45
2023-05-15T23:44:33.710Z,10.88
2023-05-15T23:47:07.138Z,8.80
2023-05-15T23:49:40.292Z,10.32
2023-05-15T23:52:14.483Z,8.93
2023-05-15T23:54:47.314Z,10.02
2023-05-15T23:57:20.111Z,11.48
2023-05-15T23:59:53.015Z,12.23
